Time;durP1;ratioP1;P1;durP2;ratioP2;P2;SDS_P1;SDS_P2;PMS_P1;PMS_P2;Temp;Humidity;BMP_temperature;BMP_pressure;BME280_temperature;BME280_humidity;BME280_pressure;Samples;Min_cycle;Max_cycle;Signal;HPM_P1;HPM_P2
2020/12/11 00:00:29;;;;;;;29.03;12.83;;;1.60;99.90;;;;;;5007788;28;20184;-51
2020/12/11 00:02:54;;;;;;;32.80;13.37;;;1.60;99.90;;;;;;5022447;28;20206;-47
2020/12/11 00:05:20;;;;;;;25.47;11.30;;;1.60;99.90;;;;;;5015958;28;20227;-52
2020/12/11 00:07:45;;;;;;;31.60;12.10;;;1.60;99.90;;;;;;4987730;28;20270;-46
2020/12/11 00:10:12;;;;;;;33.23;12.67;;;1.60;99.90;;;;;;5004155;28;20540;-54
2020/12/11 00:12:38;;;;;;;27.07;11.33;;;1.60;99.90;;;;;;5003608;28;20990;-40
2020/12/11 00:15:05;;;;;;;30.33;11.63;;;1.60;99.90;;;;;;5006721;28;20180;-44
2020/12/11 00:17:31;;;;;;;26.77;12.27;;;1.60;99.90;;;;;;5002435;28;20237;-44
2020/12/11 00:19:56;;;;;;;27.97;11.70;;;1.60;99.90;;;;;;5006565;28;20185;-42
2020/12/11 00:22:22;;;;;;;28.03;12.83;;;1.60;99.90;;;;;;4990368;28;20571;-52
2020/12/11 00:24:52;;;;;;;29.07;12.13;;;1.60;99.90;;;;;;5006030;28;20675;-46
2020/12/11 00:27:18;;;;;;;29.83;13.07;;;1.60;99.90;;;;;;5002108;28;20182;-52
2020/12/11 00:29:44;;;;;;;30.73;12.20;;;1.60;99.90;;;;;;5012631;28;20192;-47
2020/12/11 00:32:10;;;;;;;29.57;12.97;;;1.70;99.90;;;;;;5004898;28;20220;-52
2020/12/11 00:34:36;;;;;;;27.20;11.60;;;1.70;99.90;;;;;;5003650;28;20262;-46
2020/12/11 00:37:01;;;;;;;27.50;11.67;;;1.70;99.90;;;;;;5005288;28;20656;-44
2020/12/11 00:39:27;;;;;;;27.13;11.50;;;1.70;99.90;;;;;;4981206;28;20414;-46
2020/12/11 00:41:54;;;;;;;30.83;12.13;;;1.70;99.90;;;;;;5002181;28;20180;-45
2020/12/11 00:44:20;;;;;;;29.47;12.57;;;1.70;99.90;;;;;;5003441;28;20219;-53
2020/12/11 00:46:45;;;;;;;29.67;12.97;;;1.70;99.90;;;;;;5004955;28;20183;-48
2020/12/11 00:49:11;;;;;;;33.30;12.50;;;1.70;99.90;;;;;;5005243;28;20184;-52
2020/12/11 00:51:36;;;;;;;34.27;12.97;;;1.70;99.90;;;;;;5002864;28;20196;-41
2020/12/11 00:54:02;;;;;;;32.20;12.50;;;1.70;99.90;;;;;;4989399;28;20267;-41
2020/12/11 00:56:27;;;;;;;30.23;12.50;;;1.70;99.90;;;;;;5008124;28;20852;-46
2020/12/11 00:58:53;;;;;;;29.67;11.97;;;1.80;99.90;;;;;;4996087;28;20179;-44
2020/12/11 01:01:18;;;;;;;31.27;13.20;;;1.70;99.90;;;;;;5019364;28;20183;-50
2020/12/11 01:03:44;;;;;;;34.83;12.67;;;1.70;99.90;;;;;;5005849;28;20914;-44
2020/12/11 01:06:09;;;;;;;32.07;12.33;;;1.70;99.90;;;;;;5005168;28;20187;-50
2020/12/11 01:08:35;;;;;;;34.53;13.70;;;1.70;99.90;;;;;;4986898;28;20726;-41
2020/12/11 01:11:01;;;;;;;30.57;12.53;;;1.70;99.90;;;;;;5008966;28;20186;-43
2020/12/11 01:13:26;;;;;;;36.67;14.00;;;1.70;99.90;;;;;;5015935;28;20297;-46
2020/12/11 01:15:52;;;;;;;36.43;14.03;;;1.70;99.90;;;;;;5024709;28;20674;-47
2020/12/11 01:18:17;;;;;;;39.13;13.67;;;1.70;99.90;;;;;;5010844;28;20182;-53
2020/12/11 01:20:43;;;;;;;36.30;13.63;;;1.70;99.90;;;;;;5004563;28;20411;-42
2020/12/11 01:23:08;;;;;;;40.73;14.37;;;1.70;99.90;;;;;;5023709;28;20659;-53
2020/12/11 01:25:34;;;;;;;36.37;14.83;;;1.80;99.90;;;;;;4992408;28;20203;-44
2020/12/11 01:27:59;;;;;;;37.90;13.50;;;1.80;99.90;;;;;;5010709;28;20202;-41
2020/12/11 01:30:25;;;;;;;35.83;13.80;;;1.80;99.90;;;;;;5005696;28;20545;-52
2020/12/11 01:32:50;;;;;;;44.03;15.07;;;1.80;99.90;;;;;;5005037;28;20748;-46
2020/12/11 01:35:16;;;;;;;38.80;14.10;;;1.80;99.90;;;;;;5002589;28;20199;-52
2020/12/11 01:37:41;;;;;;;36.67;14.90;;;1.80;99.90;;;;;;5007352;28;20183;-41
2020/12/11 01:40:07;;;;;;;34.37;13.87;;;1.80;99.90;;;;;;4989193;28;20235;-54
2020/12/11 01:42:32;;;;;;;35.23;13.97;;;1.80;99.90;;;;;;4999173;28;20221;-44
2020/12/11 01:44:58;;;;;;;34.17;13.83;;;1.80;99.90;;;;;;5006085;28;20196;-43
2020/12/11 01:47:24;;;;;;;42.10;15.23;;;1.80;99.90;;;;;;5001658;28;20188;-53
2020/12/11 01:49:52;;;;;;;33.90;14.57;;;1.70;99.90;;;;;;5004660;28;20237;-42
2020/12/11 01:52:19;;;;;;;40.20;14.97;;;1.70;99.90;;;;;;5002389;28;20247;-53
2020/12/11 01:54:46;;;;;;;38.27;15.07;;;1.70;99.90;;;;;;5003793;28;20186;-44
2020/12/11 01:57:33;;;;;;;34.67;13.37;;;1.70;99.90;;;;;;4978710;28;20554;-50
2020/12/11 02:00:02;;;;;;;39.43;14.37;;;1.70;99.90;;;;;;5003369;28;20199;-42
2020/12/11 02:02:29;;;;;;;40.67;14.47;;;1.70;99.90;;;;;;5000951;28;20777;-48
2020/12/11 02:04:55;;;;;;;40.93;14.90;;;1.70;99.90;;;;;;5005057;28;20186;-46
2020/12/11 02:07:20;;;;;;;38.50;14.47;;;1.70;99.90;;;;;;4998255;28;20184;-51
2020/12/11 02:09:46;;;;;;;41.07;14.50;;;1.70;99.90;;;;;;5018250;28;20536;-43
2020/12/11 02:12:11;;;;;;;34.90;15.10;;;1.70;99.90;;;;;;4989746;28;20220;-50
2020/12/11 02:14:37;;;;;;;37.20;14.90;;;1.60;99.90;;;;;;5006383;28;20180;-42
2020/12/11 02:17:04;;;;;;;44.63;15.53;;;1.60;99.90;;;;;;5019151;28;20286;-46
2020/12/11 02:19:32;;;;;;;41.73;14.77;;;1.60;99.90;;;;;;5000928;28;20185;-47
2020/12/11 02:22:00;;;;;;;37.93;14.97;;;1.60;99.90;;;;;;5008198;28;20677;-46
2020/12/11 02:24:25;;;;;;;36.47;15.70;;;1.60;99.90;;;;;;5012458;28;20643;-53
2020/12/11 02:26:55;;;;;;;35.43;15.27;;;1.60;99.90;;;;;;4986116;28;20207;-42
2020/12/11 02:29:22;;;;;;;35.63;13.50;;;1.60;99.90;;;;;;4996186;28;20200;-53
2020/12/11 02:31:47;;;;;;;37.23;15.37;;;1.60;99.90;;;;;;5015570;28;20185;-42
2020/12/11 02:34:13;;;;;;;41.77;15.20;;;1.60;99.90;;;;;;5021729;28;20210;-53
2020/12/11 02:36:38;;;;;;;34.57;13.87;;;1.60;99.90;;;;;;5020722;28;20187;-43
2020/12/11 02:39:03;;;;;;;39.23;13.93;;;1.60;99.90;;;;;;5023125;28;20717;-43
2020/12/11 02:41:29;;;;;;;44.10;13.97;;;1.60;99.90;;;;;;4999740;28;20228;-46
2020/12/11 02:43:54;;;;;;;44.83;16.10;;;1.60;99.90;;;;;;5004457;28;20250;-49
2020/12/11 02:46:20;;;;;;;43.70;15.30;;;1.60;99.90;;;;;;5018781;28;20682;-56
2020/12/11 02:48:45;;;;;;;37.00;15.33;;;1.60;99.90;;;;;;5021875;28;20183;-43
2020/12/11 02:51:11;;;;;;;39.77;14.73;;;1.60;99.90;;;;;;5022084;28;20667;-53
2020/12/11 02:53:36;;;;;;;42.87;15.33;;;1.70;99.90;;;;;;5020147;28;20242;-44
2020/12/11 02:56:02;;;;;;;42.93;15.40;;;1.60;99.90;;;;;;5022828;28;20179;-42
2020/12/11 02:58:27;;;;;;;48.33;14.70;;;1.60;99.90;;;;;;4995094;28;20729;-41
2020/12/11 03:00:53;;;;;;;38.17;15.00;;;1.60;99.90;;;;;;4998903;28;20197;-41
2020/12/11 03:03:18;;;;;;;45.23;14.87;;;1.60;99.90;;;;;;5001337;28;20207;-53
2020/12/11 03:05:44;;;;;;;39.20;14.27;;;1.60;99.90;;;;;;5002352;28;20438;-41
2020/12/11 03:08:09;;;;;;;45.00;14.73;;;1.60;99.90;;;;;;5003300;28;20237;-50
2020/12/11 03:10:35;;;;;;;43.83;15.70;;;1.60;99.90;;;;;;5000351;28;20180;-45
2020/12/11 03:13:00;;;;;;;38.77;14.83;;;1.70;99.90;;;;;;4985696;28;20306;-43
2020/12/11 03:15:25;;;;;;;35.53;13.93;;;1.70;99.90;;;;;;4996408;28;20179;-53
2020/12/11 03:17:51;;;;;;;38.50;15.63;;;1.70;99.90;;;;;;5004033;28;20222;-48
2020/12/11 03:20:22;;;;;;;39.20;14.40;;;1.70;99.90;;;;;;5001609;28;20184;-51
2020/12/11 03:22:50;;;;;;;40.10;14.77;;;1.70;99.90;;;;;;5002826;28;20207;-44
2020/12/11 03:25:15;;;;;;;40.90;14.70;;;1.70;99.90;;;;;;5003402;28;20206;-51
2020/12/11 03:27:41;;;;;;;38.97;14.13;;;1.60;99.90;;;;;;4985101;28;20212;-42
2020/12/11 03:30:06;;;;;;;34.90;13.67;;;1.60;99.90;;;;;;5007113;28;20198;-53
2020/12/11 03:32:32;;;;;;;32.00;14.20;;;1.60;99.90;;;;;;5016634;28;20856;-42
2020/12/11 03:34:57;;;;;;;35.67;13.93;;;1.60;99.90;;;;;;5026575;28;20621;-47
2020/12/11 03:37:23;;;;;;;37.40;13.50;;;1.60;99.90;;;;;;5023001;28;20183;-54
2020/12/11 03:39:48;;;;;;;35.17;13.70;;;1.60;99.90;;;;;;5025787;28;20192;-43
2020/12/11 03:42:13;;;;;;;32.20;13.30;;;1.60;99.90;;;;;;5024511;28;20308;-48
2020/12/11 03:44:39;;;;;;;35.10;13.63;;;1.60;99.90;;;;;;4989459;28;20203;-42
2020/12/11 03:47:04;;;;;;;38.13;13.63;;;1.60;99.90;;;;;;5003611;28;20643;-41
2020/12/11 03:49:30;;;;;;;33.60;13.77;;;1.60;99.90;;;;;;5003234;28;20172;-42
2020/12/11 03:51:55;;;;;;;36.23;14.30;;;1.60;99.90;;;;;;5005874;28;20651;-41
2020/12/11 03:54:21;;;;;;;35.40;13.73;;;1.60;99.90;;;;;;5004030;28;20242;-52
2020/12/11 03:56:48;;;;;;;38.83;14.23;;;1.60;99.90;;;;;;5012454;28;20195;-45
2020/12/11 03:59:13;;;;;;;37.47;13.73;;;1.60;99.90;;;;;;4982193;28;20198;-47
2020/12/11 04:01:39;;;;;;;36.87;13.87;;;1.60;99.90;;;;;;5012050;28;20873;-42
2020/12/11 04:04:05;;;;;;;40.53;14.43;;;1.60;99.90;;;;;;5025955;28;20203;-42
2020/12/11 04:06:30;;;;;;;36.33;14.37;;;1.60;99.90;;;;;;5021940;28;20175;-47
2020/12/11 04:08:56;;;;;;;38.10;14.80;;;1.60;99.90;;;;;;5026075;28;20790;-41
2020/12/11 04:11:21;;;;;;;36.00;14.37;;;1.60;99.90;;;;;;5022738;28;20240;-52
2020/12/11 04:13:48;;;;;;;39.80;14.93;;;1.60;99.90;;;;;;5025003;28;20235;-44
2020/12/11 04:16:14;;;;;;;34.73;13.23;;;1.60;99.90;;;;;;4995048;28;20493;-46
2020/12/11 04:18:41;;;;;;;33.03;13.13;;;1.60;99.90;;;;;;5012281;28;20187;-43
2020/12/11 04:21:10;;;;;;;34.83;12.90;;;1.60;99.90;;;;;;5025462;28;20241;-48
2020/12/11 04:23:36;;;;;;;36.27;13.93;;;1.60;99.90;;;;;;5022498;28;20237;-46
2020/12/11 04:26:01;;;;;;;38.50;14.70;;;1.60;99.90;;;;;;5024073;28;20444;-44
2020/12/11 04:28:27;;;;;;;35.67;13.77;;;1.60;99.90;;;;;;5007135;28;20199;-44
2020/12/11 04:30:52;;;;;;;37.57;13.83;;;1.60;99.90;;;;;;4988243;28;20189;-46
2020/12/11 04:33:18;;;;;;;40.03;16.00;;;1.60;99.90;;;;;;5011533;28;20703;-44
2020/12/11 04:35:43;;;;;;;36.53;14.97;;;1.60;99.90;;;;;;5005639;28;20194;-48
2020/12/11 04:38:09;;;;;;;37.13;14.13;;;1.60;99.90;;;;;;5002683;28;20948;-48
2020/12/11 04:40:34;;;;;;;39.47;14.23;;;1.60;99.90;;;;;;5006486;28;20179;-44
2020/12/11 04:43:03;;;;;;;33.60;13.47;;;1.60;99.90;;;;;;5002159;28;20907;-45
2020/12/11 04:45:28;;;;;;;35.27;13.93;;;1.60;99.90;;;;;;5006519;28;20192;-44
2020/12/11 04:47:55;;;;;;;39.43;14.80;;;1.60;99.90;;;;;;4979742;28;20196;-46
2020/12/11 04:50:21;;;;;;;41.27;14.23;;;1.60;99.90;;;;;;5003414;28;20189;-43
2020/12/11 04:52:48;;;;;;;29.93;13.47;;;1.60;99.90;;;;;;5004095;28;20294;-46
2020/12/11 04:55:16;;;;;;;39.03;14.60;;;1.60;99.90;;;;;;5004518;28;20202;-50
2020/12/11 04:57:47;;;;;;;36.73;13.30;;;1.60;99.90;;;;;;5005220;28;20195;-46
2020/12/11 05:00:14;;;;;;;28.77;13.73;;;1.60;99.90;;;;;;5009057;28;20202;-44
2020/12/11 05:02:41;;;;;;;37.53;14.70;;;1.60;99.90;;;;;;4988499;28;20239;-44
2020/12/11 05:05:07;;;;;;;39.40;15.27;;;1.60;99.90;;;;;;5009614;28;20189;-44
2020/12/11 05:07:33;;;;;;;36.63;15.00;;;1.60;99.90;;;;;;5015585;28;20694;-46
2020/12/11 05:09:59;;;;;;;37.23;13.23;;;1.60;99.90;;;;;;5020889;28;20175;-45
2020/12/11 05:12:24;;;;;;;29.47;12.97;;;1.60;99.90;;;;;;4999741;28;20256;-48
2020/12/11 05:15:01;;;;;;;31.07;13.30;;;1.60;99.90;;;;;;5011073;28;20168;-46
2020/12/11 05:17:33;;;;;;;33.37;13.73;;;1.60;99.90;;;;;;4984928;28;20627;-45
2020/12/11 05:19:59;;;;;;;38.70;13.60;;;1.60;99.90;;;;;;5001414;28;20182;-43
2020/12/11 05:22:30;;;;;;;32.43;13.83;;;1.60;99.90;;;;;;4994352;28;20238;-48
2020/12/11 05:24:57;;;;;;;29.90;12.23;;;1.60;99.90;;;;;;5000088;28;20183;-46
2020/12/11 05:27:38;;;;;;;36.77;13.30;;;1.60;99.90;;;;;;5013076;28;20323;-48
2020/12/11 05:30:07;;;;;;;29.87;12.80;;;1.60;99.90;;;;;;4998539;28;20187;-45
2020/12/11 05:32:52;;;;;;;31.47;12.43;;;1.60;99.90;;;;;;4980111;28;20282;-46
2020/12/11 05:35:17;;;;;;;33.20;12.83;;;1.60;99.90;;;;;;5002803;28;20192;-46
2020/12/11 05:38:04;;;;;;;28.10;12.83;;;1.60;99.90;;;;;;4997703;28;20198;-44
2020/12/11 05:40:40;;;;;;;31.43;13.53;;;1.60;99.90;;;;;;4995679;28;20196;-47
2020/12/11 05:43:21;;;;;;;33.47;13.23;;;1.60;99.90;;;;;;5001780;28;20214;-45
2020/12/11 05:45:48;;;;;;;28.00;12.67;;;1.60;99.90;;;;;;5009408;28;20839;-44
2020/12/11 05:48:14;;;;;;;31.50;13.43;;;1.60;99.90;;;;;;4984282;28;20239;-45
2020/12/11 05:50:39;;;;;;;34.93;12.67;;;1.60;99.90;;;;;;5004383;28;20193;-44
2020/12/11 05:53:05;;;;;;;31.73;12.20;;;1.60;99.90;;;;;;5000142;28;20338;-46
2020/12/11 05:55:30;;;;;;;33.07;13.20;;;1.60;99.90;;;;;;5004552;28;20932;-44
2020/12/11 05:57:57;;;;;;;30.80;11.87;;;1.60;99.90;;;;;;5010541;28;20183;-46
2020/12/11 06:00:23;;;;;;;31.53;14.30;;;1.60;99.90;;;;;;5001839;28;20179;-48
2020/12/11 06:02:51;;;;;;;35.70;13.87;;;1.60;99.90;;;;;;5001216;28;20214;-44
2020/12/11 06:05:19;;;;;;;32.50;13.30;;;1.60;99.90;;;;;;4978356;28;20534;-44
2020/12/11 06:07:47;;;;;;;34.57;13.30;;;1.60;99.90;;;;;;4997724;28;20207;-47
2020/12/11 06:10:18;;;;;;;33.93;13.97;;;1.60;99.90;;;;;;5004554;28;20192;-44
2020/12/11 06:12:44;;;;;;;29.10;11.93;;;1.60;99.90;;;;;;5002137;28;20459;-46
2020/12/11 06:15:21;;;;;;;39.77;14.77;;;1.60;99.90;;;;;;5004628;28;20176;-50
2020/12/11 06:17:57;;;;;;;30.57;12.67;;;1.60;99.90;;;;;;5007808;28;20178;-46
2020/12/11 06:20:25;;;;;;;32.60;12.97;;;1.60;99.90;;;;;;4985037;28;20196;-46
2020/12/11 06:22:50;;;;;;;30.87;13.17;;;1.60;99.90;;;;;;4989051;28;21025;-43
2020/12/11 06:25:31;;;;;;;33.90;12.83;;;1.60;99.90;;;;;;4996342;28;20226;-48
2020/12/11 06:27:59;;;;;;;38.97;13.77;;;1.60;99.90;;;;;;5000005;28;20195;-49
2020/12/11 06:30:28;;;;;;;31.40;13.90;;;1.60;99.90;;;;;;5009087;28;20717;-47
2020/12/11 06:32:54;;;;;;;39.47;14.30;;;1.60;99.90;;;;;;4992379;28;20259;-48
2020/12/11 06:35:21;;;;;;;38.70;13.93;;;1.60;99.90;;;;;;4989563;28;20627;-46
2020/12/11 06:37:46;;;;;;;34.63;14.43;;;1.60;99.90;;;;;;5005479;28;20674;-47
2020/12/11 06:40:12;;;;;;;34.80;14.17;;;1.60;99.90;;;;;;5004970;28;20182;-46
2020/12/11 06:42:39;;;;;;;32.73;13.20;;;1.60;99.90;;;;;;5020766;28;20623;-47
2020/12/11 06:45:16;;;;;;;30.50;12.47;;;1.60;99.90;;;;;;5011668;28;20214;-46
2020/12/11 06:47:50;;;;;;;40.97;14.17;;;1.60;99.90;;;;;;5002629;28;20188;-45
2020/12/11 06:50:17;;;;;;;36.07;14.40;;;1.60;99.90;;;;;;4985925;28;20203;-46
2020/12/11 06:52:43;;;;;;;34.80;13.73;;;1.60;99.90;;;;;;5001174;28;20302;-45
2020/12/11 06:55:09;;;;;;;36.87;14.57;;;1.60;99.90;;;;;;4998522;28;20546;-49
2020/12/11 06:57:37;;;;;;;38.13;14.63;;;1.60;99.90;;;;;;5003512;28;20197;-46
2020/12/11 07:00:23;;;;;;;36.33;13.33;;;1.60;99.90;;;;;;4995723;28;20184;-47
2020/12/11 07:03:11;;;;;;;33.70;12.83;;;1.60;99.90;;;;;;4996675;28;20270;-45
2020/12/11 07:05:37;;;;;;;41.10;15.27;;;1.60;99.90;;;;;;4987388;28;20672;-46
2020/12/11 07:08:02;;;;;;;33.77;14.47;;;1.60;99.90;;;;;;4990944;28;20229;-47
2020/12/11 07:10:28;;;;;;;34.70;14.67;;;1.60;99.90;;;;;;5003507;28;20679;-47
2020/12/11 07:12:53;;;;;;;43.67;14.77;;;1.60;99.90;;;;;;5006383;28;20211;-47
2020/12/11 07:15:19;;;;;;;46.13;16.13;;;1.60;99.90;;;;;;5002992;28;20207;-44
2020/12/11 07:17:45;;;;;;;42.10;14.97;;;1.60;99.90;;;;;;5003573;28;20677;-49
2020/12/11 07:20:11;;;;;;;42.93;15.73;;;1.60;99.90;;;;;;5014872;28;20201;-46
2020/12/11 07:22:37;;;;;;;43.10;16.03;;;1.60;99.90;;;;;;4993709;28;20255;-44
2020/12/11 07:25:03;;;;;;;42.23;15.60;;;1.70;99.90;;;;;;4995610;28;20917;-45
2020/12/11 07:27:28;;;;;;;41.70;15.27;;;1.70;99.90;;;;;;5004104;28;20241;-45
2020/12/11 07:29:54;;;;;;;46.00;16.20;;;1.70;99.90;;;;;;5007232;28;20236;-48
2020/12/11 07:32:21;;;;;;;45.23;16.37;;;1.70;99.90;;;;;;5002074;28;20657;-48
2020/12/11 07:34:47;;;;;;;41.10;15.07;;;1.70;99.90;;;;;;4999848;28;20214;-48
2020/12/11 07:37:12;;;;;;;47.90;16.20;;;1.70;99.90;;;;;;4988293;28;20189;-50
2020/12/11 07:39:38;;;;;;;41.67;15.77;;;1.70;99.90;;;;;;5007583;28;20556;-48
2020/12/11 07:42:04;;;;;;;46.03;17.10;;;1.70;99.90;;;;;;5000309;28;20187;-47
2020/12/11 07:44:32;;;;;;;45.43;17.37;;;1.70;99.90;;;;;;5007313;28;20194;-46
2020/12/11 07:47:01;;;;;;;46.77;16.27;;;1.70;99.90;;;;;;4994739;28;20194;-49
2020/12/11 07:49:44;;;;;;;43.17;16.23;;;1.70;99.90;;;;;;5003628;28;20191;-48
2020/12/11 07:52:11;;;;;;;50.23;17.23;;;1.70;99.90;;;;;;4985209;28;20667;-46
2020/12/11 07:54:38;;;;;;;44.93;16.20;;;1.70;99.90;;;;;;4998465;28;20316;-45
2020/12/11 07:57:17;;;;;;;47.93;18.43;;;1.70;99.90;;;;;;5003783;28;20186;-46
2020/12/11 07:59:57;;;;;;;45.87;16.40;;;1.70;99.90;;;;;;4986521;28;20298;-44
2020/12/11 08:02:26;;;;;;;50.23;18.33;;;1.70;99.90;;;;;;4988757;28;20211;-46
2020/12/11 08:04:52;;;;;;;56.20;18.43;;;1.70;99.90;;;;;;4996700;28;20684;-48
2020/12/11 08:07:24;;;;;;;49.50;17.77;;;1.70;99.90;;;;;;4978414;28;20249;-47
2020/12/11 08:09:50;;;;;;;55.90;17.23;;;1.70;99.90;;;;;;5005857;28;20187;-48
2020/12/11 08:12:15;;;;;;;46.93;16.50;;;1.70;99.90;;;;;;4997890;28;20192;-49
2020/12/11 08:14:41;;;;;;;54.07;18.27;;;1.70;99.90;;;;;;5005871;28;20739;-51
2020/12/11 08:17:09;;;;;;;57.80;18.67;;;1.60;99.90;;;;;;4999618;28;20271;-45
2020/12/11 08:19:35;;;;;;;50.80;17.33;;;1.60;99.90;;;;;;5000455;28;20203;-47
2020/12/11 08:22:14;;;;;;;58.53;17.70;;;1.60;99.90;;;;;;5008795;28;20242;-47
2020/12/11 08:24:40;;;;;;;54.17;17.97;;;1.60;99.90;;;;;;4997377;28;20792;-44
2020/12/11 08:27:05;;;;;;;55.03;18.23;;;1.60;99.90;;;;;;4997242;28;20614;-44
2020/12/11 08:29:31;;;;;;;59.13;18.07;;;1.60;99.90;;;;;;5006535;28;20670;-48
2020/12/11 08:31:58;;;;;;;57.63;18.73;;;1.60;99.90;;;;;;4989675;28;20250;-44
2020/12/11 08:34:28;;;;;;;60.73;20.53;;;1.60;99.90;;;;;;5002117;28;20247;-43
2020/12/11 08:37:02;;;;;;;71.57;19.57;;;1.70;99.90;;;;;;4988199;28;20195;-43
2020/12/11 08:39:29;;;;;;;60.87;19.83;;;1.60;99.90;;;;;;4987251;28;20192;-43
2020/12/11 08:47:13;;;;;;;66.13;19.63;;;1.60;99.90;;;;;;4996428;28;20206;-43
2020/12/11 08:49:53;;;;;;;60.20;20.40;;;1.60;99.90;;;;;;5006558;28;20218;-48
2020/12/11 08:52:19;;;;;;;61.73;20.03;;;1.70;99.90;;;;;;5008303;28;20811;-44
2020/12/11 08:54:46;;;;;;;60.13;20.43;;;1.70;99.90;;;;;;4996905;28;20212;-46
2020/12/11 08:57:12;;;;;;;65.43;19.87;;;1.70;99.90;;;;;;4993893;28;20976;-46
2020/12/11 08:59:38;;;;;;;70.30;20.90;;;1.60;99.90;;;;;;4995410;28;20188;-44
2020/12/11 09:02:03;;;;;;;58.00;18.77;;;1.60;99.90;;;;;;5001105;28;20199;-44
2020/12/11 09:04:29;;;;;;;61.40;20.20;;;1.70;99.90;;;;;;4984178;28;20206;-45
2020/12/11 09:06:55;;;;;;;60.37;21.23;;;1.60;99.90;;;;;;4991611;28;20239;-48
2020/12/11 09:09:21;;;;;;;64.47;21.30;;;1.60;99.90;;;;;;5005049;28;20583;-50
2020/12/11 09:11:46;;;;;;;72.67;21.57;;;1.70;99.90;;;;;;4989105;28;20196;-47
2020/12/11 09:14:12;;;;;;;65.30;21.90;;;1.70;99.90;;;;;;5005907;28;20220;-46
2020/12/11 09:16:38;;;;;;;66.27;20.47;;;1.70;99.90;;;;;;5003576;28;20251;-44
2020/12/11 09:19:03;;;;;;;61.27;19.23;;;1.70;99.90;;;;;;5010699;28;20200;-45
2020/12/11 09:21:29;;;;;;;61.93;20.20;;;1.70;99.90;;;;;;4996168;28;20198;-43
2020/12/11 09:23:54;;;;;;;64.07;20.07;;;1.70;99.90;;;;;;5018696;28;20617;-45
2020/12/11 09:26:20;;;;;;;67.93;20.13;;;1.70;99.90;;;;;;4991473;28;20657;-43
2020/12/11 09:28:50;;;;;;;58.27;19.73;;;1.70;99.90;;;;;;5000755;28;20281;-44
2020/12/11 09:31:24;;;;;;;56.67;18.90;;;1.70;99.90;;;;;;5000793;28;20225;-49
2020/12/11 09:33:50;;;;;;;58.03;18.17;;;1.70;99.90;;;;;;4992239;28;20717;-48
2020/12/11 09:36:15;;;;;;;55.53;18.63;;;1.80;99.90;;;;;;5003001;28;20177;-48
2020/12/11 09:38:41;;;;;;;66.17;20.63;;;1.80;99.90;;;;;;4999571;28;20273;-45
2020/12/11 09:41:08;;;;;;;68.07;20.40;;;1.80;99.90;;;;;;5021171;28;20777;-43
2020/12/11 09:48:54;;;;;;;61.40;21.30;;;1.80;99.90;;;;;;5009855;28;20317;-44
2020/12/11 09:56:27;;;;;;;69.60;21.83;;;1.80;99.90;;;;;;5003888;28;20176;-46
2020/12/11 09:58:57;;;;;;;59.83;20.43;;;1.80;99.90;;;;;;4990893;28;20199;-47
2020/12/11 10:04:08;;;;;;;65.03;22.03;;;1.80;99.90;;;;;;4990575;28;20199;-44
2020/12/11 10:06:34;;;;;;;60.70;19.93;;;1.80;99.90;;;;;;5001181;28;20683;-50
2020/12/11 10:08:59;;;;;;;68.67;20.07;;;1.80;99.90;;;;;;4988932;28;20200;-49
2020/12/11 10:11:25;;;;;;;65.13;21.13;;;1.80;99.90;;;;;;5006418;28;20271;-51
2020/12/11 10:13:52;;;;;;;72.63;20.60;;;1.80;99.90;;;;;;4987742;28;20218;-47
2020/12/11 10:16:17;;;;;;;61.20;19.90;;;1.90;99.90;;;;;;4999714;28;20178;-46
2020/12/11 10:18:44;;;;;;;66.23;21.40;;;1.90;99.90;;;;;;5010279;28;20187;-46
2020/12/11 10:21:12;;;;;;;67.10;21.90;;;1.90;99.90;;;;;;4990962;28;20180;-48
2020/12/11 10:23:38;;;;;;;64.27;21.47;;;1.90;99.90;;;;;;4997345;28;20207;-47
2020/12/11 10:26:04;;;;;;;59.23;21.03;;;1.90;99.90;;;;;;4986314;28;20196;-46
2020/12/11 10:28:31;;;;;;;63.47;21.87;;;1.90;99.90;;;;;;5002091;28;20199;-46
2020/12/11 10:30:57;;;;;;;72.00;21.67;;;1.90;99.90;;;;;;4978621;28;20293;-44
2020/12/11 10:33:22;;;;;;;59.33;20.10;;;1.90;99.90;;;;;;5006652;28;20306;-46
2020/12/11 10:35:48;;;;;;;60.80;20.80;;;2.00;99.90;;;;;;4999390;28;20179;-45
2020/12/11 10:38:13;;;;;;;63.80;20.27;;;2.00;99.90;;;;;;5001469;28;20858;-48
2020/12/11 10:40:39;;;;;;;59.73;20.17;;;2.00;99.90;;;;;;5000373;28;20202;-47
2020/12/11 10:43:04;;;;;;;57.03;20.10;;;2.00;99.90;;;;;;5000100;28;20212;-43
2020/12/11 10:45:30;;;;;;;58.87;20.70;;;2.00;99.90;;;;;;5005142;28;20515;-48
2020/12/11 10:47:55;;;;;;;59.60;20.40;;;1.90;99.90;;;;;;4977291;28;20684;-43
2020/12/11 10:50:21;;;;;;;64.47;21.97;;;1.90;99.90;;;;;;5002823;28;20184;-44
2020/12/11 10:52:46;;;;;;;66.03;19.10;;;1.90;99.90;;;;;;5006625;28;20274;-48
2020/12/11 10:55:12;;;;;;;51.57;18.30;;;1.90;99.90;;;;;;4995189;28;20179;-45
2020/12/11 10:57:37;;;;;;;60.00;20.00;;;2.00;99.90;;;;;;4989848;28;20202;-49
2020/12/11 11:00:04;;;;;;;59.87;19.90;;;2.00;99.90;;;;;;5003857;28;20176;-45
2020/12/11 11:02:30;;;;;;;65.80;20.47;;;2.00;99.90;;;;;;4983716;28;20212;-49
2020/12/11 11:04:55;;;;;;;58.43;18.80;;;1.90;99.90;;;;;;4998309;28;20895;-45
2020/12/11 11:07:25;;;;;;;58.70;19.97;;;1.90;99.90;;;;;;4999255;28;20573;-47
2020/12/11 11:12:31;;;;;;;47.37;18.50;;;1.90;99.90;;;;;;5004094;28;20190;-43
2020/12/11 11:15:23;;;;;;;62.93;20.27;;;1.90;99.90;;;;;;5003427;28;20191;-47
2020/12/11 11:26:06;;;;;;;50.07;19.67;;;1.90;99.90;;;;;;4998910;28;20930;-46
2020/12/11 11:28:32;;;;;;;56.57;20.20;;;2.00;99.90;;;;;;5006445;28;20223;-47
2020/12/11 11:30:58;;;;;;;53.43;18.33;;;2.00;99.90;;;;;;4994026;28;20653;-43
2020/12/11 11:33:23;;;;;;;60.43;19.87;;;2.00;99.90;;;;;;4993621;28;20207;-48
2020/12/11 11:35:49;;;;;;;61.30;20.50;;;2.00;99.90;;;;;;4977527;28;20923;-44
2020/12/11 11:38:17;;;;;;;60.63;19.57;;;2.00;99.90;;;;;;4999528;28;20167;-47
2020/12/11 11:40:43;;;;;;;47.87;18.53;;;2.00;99.90;;;;;;4986901;28;20188;-44
2020/12/11 11:43:09;;;;;;;59.97;19.77;;;1.90;99.90;;;;;;5002828;28;20282;-44
2020/12/11 11:45:37;;;;;;;65.97;21.17;;;1.90;99.90;;;;;;5000366;28;20190;-49
2020/12/11 11:48:07;;;;;;;45.30;18.47;;;1.90;99.90;;;;;;5005328;28;20209;-43
2020/12/11 11:50:40;;;;;;;54.87;18.70;;;2.00;99.90;;;;;;4993470;28;20201;-48
2020/12/11 11:53:19;;;;;;;59.37;20.23;;;2.00;99.90;;;;;;5004268;28;20215;-44
2020/12/11 11:55:44;;;;;;;60.60;20.40;;;2.00;99.90;;;;;;4990659;28;21864;-42
2020/12/11 11:58:10;;;;;;;62.47;20.20;;;2.00;99.90;;;;;;5006384;28;20234;-47
2020/12/11 12:00:36;;;;;;;51.33;17.57;;;2.10;99.90;;;;;;5003028;28;20238;-49
2020/12/11 12:03:02;;;;;;;60.17;20.23;;;2.00;99.90;;;;;;5006715;28;20268;-42
2020/12/11 12:05:28;;;;;;;55.83;19.60;;;2.10;99.90;;;;;;4993209;28;20669;-51
2020/12/11 12:07:53;;;;;;;63.30;18.93;;;2.10;99.90;;;;;;4986014;28;20200;-45
2020/12/11 12:10:18;;;;;;;55.17;20.10;;;2.10;99.90;;;;;;4997017;28;20195;-48
2020/12/11 12:12:44;;;;;;;52.97;18.90;;;2.10;99.90;;;;;;4985507;28;20255;-46
2020/12/11 12:15:14;;;;;;;51.27;18.50;;;2.10;99.90;;;;;;4996919;28;20194;-43
2020/12/11 12:17:47;;;;;;;55.10;19.07;;;2.10;99.90;;;;;;4996213;28;20811;-44
2020/12/11 12:20:19;;;;;;;63.87;20.27;;;2.10;99.90;;;;;;4994558;28;20189;-44
2020/12/11 12:28:31;;;;;;;62.87;19.53;;;2.10;99.90;;;;;;4991589;28;20199;-48
2020/12/11 12:30:57;;;;;;;50.40;18.27;;;2.20;99.90;;;;;;5005203;28;20188;-49
2020/12/11 12:39:00;;;;;;;61.77;18.43;;;2.10;99.90;;;;;;4991508;28;20210;-46
2020/12/11 12:44:01;;;;;;;52.57;18.03;;;2.10;99.90;;;;;;4996786;28;20217;-51
2020/12/11 12:46:27;;;;;;;55.57;19.53;;;2.20;99.90;;;;;;5009958;28;20168;-48
2020/12/11 12:48:52;;;;;;;49.40;18.10;;;2.10;99.90;;;;;;5000302;28;20188;-45
2020/12/11 12:51:17;;;;;;;47.53;16.47;;;2.10;99.90;;;;;;4984493;28;20945;-46
2020/12/11 12:53:43;;;;;;;46.73;17.40;;;2.20;99.90;;;;;;5008591;28;20265;-49
2020/12/11 12:58:59;;;;;;;45.13;17.77;;;2.20;99.90;;;;;;5000224;28;20339;-48
2020/12/11 13:01:48;;;;;;;45.77;17.87;;;2.20;99.90;;;;;;5007309;28;20189;-42
2020/12/11 13:04:30;;;;;;;46.90;18.00;;;2.20;99.90;;;;;;4995245;28;20239;-48
2020/12/11 13:06:55;;;;;;;43.13;17.40;;;2.20;99.90;;;;;;4991306;28;20806;-50
2020/12/11 13:09:21;;;;;;;52.53;17.07;;;2.20;99.90;;;;;;5002416;28;20306;-45
2020/12/11 13:11:50;;;;;;;45.40;16.80;;;2.10;99.90;;;;;;5005142;28;20656;-44
2020/12/11 13:14:15;;;;;;;47.43;16.53;;;2.10;99.90;;;;;;4990822;28;20319;-44
2020/12/11 13:16:41;;;;;;;52.20;18.57;;;2.20;99.90;;;;;;5015045;28;20262;-47
2020/12/11 13:19:07;;;;;;;53.90;18.33;;;2.10;99.90;;;;;;5007556;28;20190;-48
2020/12/11 13:21:38;;;;;;;46.50;16.97;;;2.10;99.90;;;;;;4992774;28;20180;-44